地図

経路データ

SID SEASON NUMBER BASIN SUBBASIN NAME ISO_TIME NATURE LAT LON WMO_WIND WMO_PRES WMO_AGENCY TRACK_TYPE DIST2LAND LANDFALL IFLAG USA_AGENCY USA_ATCF_ID USA_LAT USA_LON USA_RECORD USA_STATUS USA_WIND USA_PRES USA_SSHS USA_R34_NE USA_R34_SE USA_R34_SW USA_R34_NW USA_R50_NE USA_R50_SE USA_R50_SW USA_R50_NW USA_R64_NE USA_R64_SE USA_R64_SW USA_R64_NW USA_POCI USA_ROCI USA_RMW USA_EYE TOKYO_LAT TOKYO_LON TOKYO_GRADE TOKYO_WIND TOKYO_PRES TOKYO_R50_DIR TOKYO_R50_LONG TOKYO_R50_SHORT TOKYO_R30_DIR TOKYO_R30_LONG TOKYO_R30_SHORT TOKYO_LAND CMA_LAT CMA_LON CMA_CAT CMA_WIND CMA_PRES HKO_LAT HKO_LON HKO_CAT HKO_WIND HKO_PRES NEWDELHI_LAT NEWDELHI_LON NEWDELHI_GRADE NEWDELHI_WIND NEWDELHI_PRES NEWDELHI_CI NEWDELHI_DP NEWDELHI_POCI REUNION_LAT REUNION_LON REUNION_TYPE REUNION_WIND REUNION_PRES REUNION_TNUM REUNION_CI REUNION_RMW REUNION_R34_NE REUNION_R34_SE REUNION_R34_SW REUNION_R34_NW REUNION_R50_NE REUNION_R50_SE REUNION_R50_SW REUNION_R50_NW REUNION_R64_NE REUNION_R64_SE REUNION_R64_SW REUNION_R64_NW BOM_LAT BOM_LON BOM_TYPE BOM_WIND BOM_PRES BOM_TNUM BOM_CI BOM_RMW BOM_R34_NE BOM_R34_SE BOM_R34_SW BOM_R34_NW BOM_R50_NE BOM_R50_SE BOM_R50_SW BOM_R50_NW BOM_R64_NE BOM_R64_SE BOM_R64_SW BOM_R64_NW BOM_ROCI BOM_POCI BOM_EYE BOM_POS_METHOD BOM_PRES_METHOD NADI_LAT NADI_LON NADI_CAT NADI_WIND NADI_PRES WELLINGTON_LAT WELLINGTON_LON WELLINGTON_WIND WELLINGTON_PRES DS824_LAT DS824_LON DS824_STAGE DS824_WIND DS824_PRES TD9636_LAT TD9636_LON TD9636_STAGE TD9636_WIND TD9636_PRES TD9635_LAT TD9635_LON TD9635_WIND TD9635_PRES TD9635_ROCI NEUMANN_LAT NEUMANN_LON NEUMANN_CLASS NEUMANN_WIND NEUMANN_PRES MLC_LAT MLC_LON MLC_CLASS MLC_WIND MLC_PRES USA_GUST BOM_GUST BOM_GUST_PER REUNION_GUST REUNION_GUST_PER USA_SEAHGT USA_SEARAD_NE USA_SEARAD_SE USA_SEARAD_SW USA_SEARAD_NW STORM_SPEED STORM_DIR
2001047S17157 2001 9 SP EA NOT_NAMED 2001-02-16 00:00:00 TS -16.8000 157.400 main 798 729 O___________O_ jtwc_sh SH102001 -16.8000 157.400 TD 25 -1 -16.8000 157.400 TC 25 13 129
2001047S17157 2001 9 SP EA NOT_NAMED 2001-02-16 03:00:00 TS -17.2227 157.937 main 729 652 P___________P_ SH102001 -17.2227 157.937 TD 25 -1 -17.2227 157.937 TC 25 14 125
2001047S17157 2001 9 SP EA NOT_NAMED 2001-02-16 06:00:00 TS -17.5857 158.571 main 643 576 O_______O___O_ jtwc_sh SH102001 -17.6000 158.500 TD 25 -1 -17.5000 159.000 30 1000 -17.6000 158.500 TC 25 14 117
2001047S17157 2001 9 SP EA NOT_NAMED 2001-02-16 09:00:00 TS -17.8548 159.254 main 562 495 P_______P___P_ SH102001 -17.9074 159.100 TD 25 -1 -17.6440 159.869 30 999 -17.9074 159.100 TC 25 14 112
2001047S17157 2001 9 SP EA NOT_NAMED 2001-02-16 12:00:00 TS -18.0909 159.918 main 495 433 O_______O___O_ jtwc_sh SH102001 -18.2000 159.700 TD 25 -1 -17.8000 160.500 30 999 -18.2000 159.700 TC 25 12 116
2001047S17157 2001 9 SP MM NOT_NAMED 2001-02-16 15:00:00 TS -18.3800 160.406 main 433 370 P_______P___P_ SH102001 -18.5719 160.220 TD 27 -1 -17.9963 160.779 30 999 -18.5719 160.220 TC 27 11 123
2001047S17157 2001 9 SP MM NOT_NAMED 2001-02-16 18:00:00 TS -18.7000 160.900 main 370 290 O_______O___O_ jtwc_sh SH102001 -18.9000 160.800 TD 30 -1 -18.3000 161.100 30 999 -18.9000 160.800 TC 30 14 118
2001047S17157 2001 9 SP MM NOT_NAMED 2001-02-16 21:00:00 TS -19.0145 161.683 main 281 199 P_______P___P_ SH102001 -19.0949 161.548 TD 30 -1 -18.8537 161.953 30 998 -19.0949 161.548 TC 30 17 109
2001047S17157 2001 9 SP MM NOT_NAMED 2001-02-17 00:00:00 TS -19.2333 162.567 main 191 130 O_______O___O_ jtwc_sh SH102001 -19.2000 162.400 TD 30 -1 -19.3000 162.900 30 997 -19.2000 162.400 TC 30 16 98
2001047S17157 2001 9 SP MM NOT_NAMED 2001-02-17 03:00:00 TS -19.2481 163.385 main 133 111 P_______P___P_ SH102001 -19.2503 163.323 TD 30 -1 -19.2439 163.509 30 996 -19.2503 163.323 TC 30 15 90
2001047S17157 2001 9 SP MM NOT_NAMED 2001-02-17 06:00:00 TS -19.2333 164.167 main 112 105 O_______O___O_ jtwc_sh SH102001 -19.3000 164.200 TD 30 -1 -19.1000 164.100 30 996 -19.3000 164.200 TC 30 15 94
2001047S17157 2001 9 SP MM NOT_NAMED 2001-02-17 09:00:00 TS -19.3401 164.953 main 123 113 P_______P___P_ SH102001 -19.4045 164.910 TD 32 -1 -19.2112 165.024 30 996 -19.4047 164.925 TC 32 14 104
2001047S17157 2001 9 SP MM NOT_NAMED 2001-02-17 12:00:00 TS -19.5667 165.600 main 137 124 O_______O___O_ jtwc_sh SH102001 -19.6000 165.500 TS 35 0 -19.5000 165.800 30 996 -19.6000 165.500 TC 35 11 122
2001047S17157 2001 9 SP MM NOT_NAMED 2001-02-17 15:00:00 TS -19.9386 165.971 main 130 114 P_______P___P_ SH102001 -19.9198 166.045 TS 35 0 -19.9765 165.939 30 995 -19.9196 165.930 TC 35 10 142
2001047S17157 2001 9 SP MM NOT_NAMED 2001-02-17 18:00:00 TS -20.3667 166.267 main 115 108 O_______O___O_ jtwc_sh SH102001 -20.3000 166.500 TS 35 0 -20.5000 166.000 30 995 -20.3000 166.300 TC 35 10 137
2001047S17157 2001 9 SP MM NOT_NAMED 2001-02-17 21:00:00 TS -20.6992 166.714 main 108 103 P_______P___P_ SH102001 -20.6272 166.866 TS 32 -1 -20.8428 166.525 30 994 -20.6275 166.750 TC 32 11 129
2001047S17157 2001 9 SP MM NOT_NAMED 2001-02-18 00:00:00 TS -21.0800 167.200 main 106 98 O_______O___O_ jtwc_sh SH102001 -21.0000 167.200 TD 30 -1 -21.2000 167.200 30 993 -21.0000 167.200 TC 30 13 133
2001047S17157 2001 9 SP MM NOT_NAMED 2001-02-18 03:00:00 TS -21.5726 167.702 main 98 98 P_______P___P_ SH102001 -21.4703 167.582 TD 30 -1 -21.6749 167.808 30 993 -21.4701 167.612 TC 30 15 138
2001047S17157 2001 9 SP MM NOT_NAMED 2001-02-18 06:00:00 TS -22.2000 168.267 main 133 133 O_______O___O_ jtwc_sh SH102001 -22.0000 168.000 TD 30 -1 -22.3000 168.400 30 993 -22.0000 168.000 TC 30 19 143
2001047S17157 2001 9 SP MM NOT_NAMED 2001-02-18 09:00:00 NR -23.1198 168.965 main 223 223 ________P_____ SH102001 TD -1 -23.1198 168.965 30 995 TC 21 148
2001047S17157 2001 9 SP MM NOT_NAMED 2001-02-18 12:00:00 NR -24.0000 169.500 main 318 318 ________O_____ -24.0000 169.500 30 997 18 150
2001047S17157 2001 9 SP MM NOT_NAMED 2001-02-18 15:00:00 NR -24.6743 169.966 main 406 406 ________P_____ -24.6743 169.966 30 997 18 149
2001047S17157 2001 9 SP MM NOT_NAMED 2001-02-18 18:00:00 NR -25.5000 170.500 30 997 wellington main 503 503 ________O_____ -25.5000 170.500 30 997 24 151
2001047S17157 2001 9 SP MM NOT_NAMED 2001-02-18 21:00:00 NR -26.7266 171.231 main 647 647 ________P_____ -26.7266 171.231 30 997 31 152
2001047S17157 2001 9 SP MM NOT_NAMED 2001-02-19 00:00:00 NR -28.2000 172.100 30 997 wellington main 704 ________O_____ -28.2000 172.100 30 997 33 153

デジタル台風データ・検索

IBTrACS Databaseについて

本データベースは、米国NOAAが公開する1842年以降の世界の熱帯低気圧のベストトラックデータアーカイブInternational Best Track Archive for Climate Stewardship (IBTrACS)を、ウェブで閲覧しやすい形式に変換したものです。

最終更新日:2021-12-03